sensor_id;sensor_type;location;lat;lon;timestamp;pressure;altitude;pressure_sealevel;temperature;humidity
7200;BME280;3641;49.082;8.200;2024-03-22T00:00:57;101077.03;;;11.44;76.71
7200;BME280;3641;49.082;8.200;2024-03-22T00:03:22;101070.50;;;11.45;76.72
7200;BME280;3641;49.082;8.200;2024-03-22T00:05:49;101073.13;;;11.22;81.05
7200;BME280;3641;49.082;8.200;2024-03-22T00:08:14;101069.00;;;11.26;77.67
7200;BME280;3641;49.082;8.200;2024-03-22T00:10:40;101066.44;;;11.41;76.53
7200;BME280;3641;49.082;8.200;2024-03-22T00:13:06;101070.84;;;11.50;75.08
7200;BME280;3641;49.082;8.200;2024-03-22T00:15:32;101058.91;;;11.18;80.32
7200;BME280;3641;49.082;8.200;2024-03-22T00:17:59;101058.69;;;10.46;87.29
7200;BME280;3641;49.082;8.200;2024-03-22T00:20:25;101059.25;;;10.66;85.89
7200;BME280;3641;49.082;8.200;2024-03-22T00:22:51;101055.69;;;10.98;80.72
7200;BME280;3641;49.082;8.200;2024-03-22T00:25:17;101049.03;;;10.17;90.02
7200;BME280;3641;49.082;8.200;2024-03-22T00:27:43;101047.28;;;9.99;90.31
7200;BME280;3641;49.082;8.200;2024-03-22T00:30:10;101043.66;;;10.42;84.17
7200;BME280;3641;49.082;8.200;2024-03-22T00:32:35;101041.94;;;9.90;92.31
7200;BME280;3641;49.082;8.200;2024-03-22T00:35:03;101044.44;;;10.17;89.10
7200;BME280;3641;49.082;8.200;2024-03-22T00:37:29;101045.47;;;10.16;86.98
7200;BME280;3641;49.082;8.200;2024-03-22T00:39:55;101035.38;;;10.76;81.04
7200;BME280;3641;49.082;8.200;2024-03-22T00:42:21;101039.31;;;10.14;88.09
7200;BME280;3641;49.082;8.200;2024-03-22T00:44:47;101032.25;;;10.54;81.22
7200;BME280;3641;49.082;8.200;2024-03-22T00:47:12;101028.53;;;10.64;81.54
7200;BME280;3641;49.082;8.200;2024-03-22T00:49:39;101021.88;;;10.83;78.67
7200;BME280;3641;49.082;8.200;2024-03-22T00:52:06;101017.13;;;10.93;78.04
7200;BME280;3641;49.082;8.200;2024-03-22T00:54:32;101024.78;;;10.57;80.83
7200;BME280;3641;49.082;8.200;2024-03-22T00:56:58;101009.94;;;10.76;79.70
7200;BME280;3641;49.082;8.200;2024-03-22T00:59:24;101011.13;;;10.89;77.83
7200;BME280;3641;49.082;8.200;2024-03-22T01:01:49;101008.72;;;10.86;77.99
7200;BME280;3641;49.082;8.200;2024-03-22T01:04:16;101000.91;;;10.83;78.53
7200;BME280;3641;49.082;8.200;2024-03-22T01:06:41;101011.69;;;10.26;86.88
7200;BME280;3641;49.082;8.200;2024-03-22T01:09:09;101001.97;;;9.64;91.95
7200;BME280;3641;49.082;8.200;2024-03-22T01:11:35;100998.66;;;9.52;93.27
7200;BME280;3641;49.082;8.200;2024-03-22T01:14:01;100990.72;;;9.33;94.53
7200;BME280;3641;49.082;8.200;2024-03-22T01:16:26;100998.31;;;9.90;87.88
7200;BME280;3641;49.082;8.200;2024-03-22T01:18:53;101003.94;;;9.19;95.12
7200;BME280;3641;49.082;8.200;2024-03-22T01:21:18;100996.88;;;9.08;96.81
7200;BME280;3641;49.082;8.200;2024-03-22T01:23:50;100991.34;;;9.26;94.70
7200;BME280;3641;49.082;8.200;2024-03-22T01:26:16;100982.16;;;9.62;88.86
7200;BME280;3641;49.082;8.200;2024-03-22T01:28:43;100977.06;;;9.24;92.50
7200;BME280;3641;49.082;8.200;2024-03-22T01:31:08;100984.88;;;8.75;96.27
7200;BME280;3641;49.082;8.200;2024-03-22T01:33:35;100976.81;;;8.91;96.14
7200;BME280;3641;49.082;8.200;2024-03-22T01:36:00;100971.03;;;9.13;93.69
7200;BME280;3641;49.082;8.200;2024-03-22T01:38:27;100977.56;;;8.76;96.81
7200;BME280;3641;49.082;8.200;2024-03-22T01:40:53;100981.78;;;8.70;96.05
7200;BME280;3641;49.082;8.200;2024-03-22T01:43:20;100974.84;;;8.40;97.81
7200;BME280;3641;49.082;8.200;2024-03-22T01:45:46;100961.22;;;9.28;88.79
7200;BME280;3641;49.082;8.200;2024-03-22T01:48:12;100958.53;;;9.36;87.58
7200;BME280;3641;49.082;8.200;2024-03-22T01:50:38;100963.09;;;9.01;92.12
7200;BME280;3641;49.082;8.200;2024-03-22T01:53:05;100956.38;;;8.87;94.19
7200;BME280;3641;49.082;8.200;2024-03-22T01:55:30;100964.41;;;8.89;94.78
7200;BME280;3641;49.082;8.200;2024-03-22T01:57:57;100965.84;;;8.57;96.76
7200;BME280;3641;49.082;8.200;2024-03-22T02:00:24;100957.34;;;8.42;98.02
7200;BME280;3641;49.082;8.200;2024-03-22T02:02:51;100951.41;;;8.83;92.37
7200;BME280;3641;49.082;8.200;2024-03-22T02:05:17;100956.59;;;8.50;97.56
7200;BME280;3641;49.082;8.200;2024-03-22T02:07:44;100943.31;;;8.91;91.92
7200;BME280;3641;49.082;8.200;2024-03-22T02:10:10;100947.50;;;8.59;96.85
7200;BME280;3641;49.082;8.200;2024-03-22T02:12:37;100956.75;;;8.48;98.35
7200;BME280;3641;49.082;8.200;2024-03-22T02:15:03;100950.97;;;8.33;99.72
7200;BME280;3641;49.082;8.200;2024-03-22T02:17:31;100943.44;;;9.16;88.46
7200;BME280;3641;49.082;8.200;2024-03-22T02:19:57;100948.28;;;8.96;93.02
7200;BME280;3641;49.082;8.200;2024-03-22T02:22:23;100947.31;;;9.05;90.94
7200;BME280;3641;49.082;8.200;2024-03-22T02:24:50;100935.75;;;9.37;85.18
7200;BME280;3641;49.082;8.200;2024-03-22T02:27:16;100940.00;;;8.61;96.43
7200;BME280;3641;49.082;8.200;2024-03-22T02:29:42;100937.09;;;9.07;89.39
7200;BME280;3641;49.082;8.200;2024-03-22T02:32:09;100932.53;;;8.81;94.74
7200;BME280;3641;49.082;8.200;2024-03-22T02:34:34;100940.31;;;8.58;97.39
7200;BME280;3641;49.082;8.200;2024-03-22T02:37:01;100936.53;;;8.51;98.08
7200;BME280;3641;49.082;8.200;2024-03-22T02:39:26;100931.63;;;8.99;90.59
7200;BME280;3641;49.082;8.200;2024-03-22T02:41:55;100933.69;;;9.39;85.45
7200;BME280;3641;49.082;8.200;2024-03-22T02:44:20;100926.22;;;9.41;86.90
7200;BME280;3641;49.082;8.200;2024-03-22T02:46:47;100936.19;;;8.98;93.79
7200;BME280;3641;49.082;8.200;2024-03-22T02:49:12;100936.47;;;8.87;94.57
7200;BME280;3641;49.082;8.200;2024-03-22T02:51:39;100940.06;;;8.87;94.75
7200;BME280;3641;49.082;8.200;2024-03-22T02:54:05;100940.03;;;8.43;98.04
7200;BME280;3641;49.082;8.200;2024-03-22T02:56:31;100938.06;;;8.53;96.39
7200;BME280;3641;49.082;8.200;2024-03-22T02:58:58;100935.13;;;8.47;97.79
7200;BME280;3641;49.082;8.200;2024-03-22T03:01:24;100939.88;;;8.45;97.29
7200;BME280;3641;49.082;8.200;2024-03-22T03:03:50;100938.41;;;8.50;97.84
7200;BME280;3641;49.082;8.200;2024-03-22T03:06:16;100939.19;;;8.87;93.92
7200;BME280;3641;49.082;8.200;2024-03-22T03:08:43;100924.72;;;9.13;88.33
7200;BME280;3641;49.082;8.200;2024-03-22T03:11:09;100930.81;;;9.41;84.43
7200;BME280;3641;49.082;8.200;2024-03-22T03:13:35;100925.94;;;8.66;95.03
7200;BME280;3641;49.082;8.200;2024-03-22T03:16:04;100922.97;;;9.03;91.44
7200;BME280;3641;49.082;8.200;2024-03-22T03:18:29;100916.19;;;8.81;91.99
7200;BME280;3641;49.082;8.200;2024-03-22T03:20:56;100915.06;;;9.26;86.45
7200;BME280;3641;49.082;8.200;2024-03-22T03:23:21;100915.44;;;9.32;86.68
7200;BME280;3641;49.082;8.200;2024-03-22T03:25:47;100925.72;;;8.59;94.96
7200;BME280;3641;49.082;8.200;2024-03-22T03:28:13;100922.47;;;8.82;90.96
7200;BME280;3641;49.082;8.200;2024-03-22T03:30:40;100920.84;;;8.45;96.12
7200;BME280;3641;49.082;8.200;2024-03-22T03:33:07;100911.69;;;8.98;91.17
7200;BME280;3641;49.082;8.200;2024-03-22T03:35:33;100906.91;;;9.26;85.85
7200;BME280;3641;49.082;8.200;2024-03-22T03:37:59;100904.16;;;9.18;87.89
7200;BME280;3641;49.082;8.200;2024-03-22T03:40:25;100904.22;;;9.35;84.76
7200;BME280;3641;49.082;8.200;2024-03-22T03:42:52;100899.00;;;9.41;84.89
7200;BME280;3641;49.082;8.200;2024-03-22T03:45:18;100900.88;;;9.49;83.32
7200;BME280;3641;49.082;8.200;2024-03-22T03:47:44;100901.28;;;9.62;81.70
7200;BME280;3641;49.082;8.200;2024-03-22T03:50:12;100901.53;;;9.43;84.70
7200;BME280;3641;49.082;8.200;2024-03-22T03:52:37;100906.72;;;9.20;90.02
7200;BME280;3641;49.082;8.200;2024-03-22T03:55:04;100897.25;;;9.40;85.13
7200;BME280;3641;49.082;8.200;2024-03-22T03:57:29;100894.31;;;9.25;87.92
7200;BME280;3641;49.082;8.200;2024-03-22T03:59:56;100900.25;;;9.21;89.35
7200;BME280;3641;49.082;8.200;2024-03-22T04:02:21;100901.53;;;9.08;89.49
7200;BME280;3641;49.082;8.200;2024-03-22T04:04:51;100909.50;;;8.76;94.64
7200;BME280;3641;49.082;8.200;2024-03-22T04:07:18;100900.78;;;8.98;90.21
7200;BME280;3641;49.082;8.200;2024-03-22T04:09:45;100897.69;;;8.93;93.06
7200;BME280;3641;49.082;8.200;2024-03-22T04:12:10;100890.88;;;8.63;95.35
7200;BME280;3641;49.082;8.200;2024-03-22T04:14:37;100892.94;;;9.21;86.94
7200;BME280;3641;49.082;8.200;2024-03-22T04:17:02;100886.59;;;9.13;90.57
7200;BME280;3641;49.082;8.200;2024-03-22T04:19:29;100904.22;;;8.48;95.66
7200;BME280;3641;49.082;8.200;2024-03-22T04:21:54;100899.25;;;8.96;90.42
7200;BME280;3641;49.082;8.200;2024-03-22T04:24:22;100891.13;;;9.04;92.16
7200;BME280;3641;49.082;8.200;2024-03-22T04:26:47;100885.25;;;8.82;93.03
7200;BME280;3641;49.082;8.200;2024-03-22T04:29:14;100895.56;;;8.52;96.09
7200;BME280;3641;49.082;8.200;2024-03-22T04:31:39;100899.53;;;8.22;98.00
7200;BME280;3641;49.082;8.200;2024-03-22T04:34:06;100892.69;;;8.36;97.72
7200;BME280;3641;49.082;8.200;2024-03-22T04:36:32;100894.19;;;9.01;88.79
7200;BME280;3641;49.082;8.200;2024-03-22T04:38:59;100891.81;;;8.35;97.27
7200;BME280;3641;49.082;8.200;2024-03-22T04:41:27;100881.66;;;8.19;98.53
7200;BME280;3641;49.082;8.200;2024-03-22T04:43:52;100886.59;;;8.42;96.41
7200;BME280;3641;49.082;8.200;2024-03-22T04:46:18;100882.88;;;8.87;89.19
7200;BME280;3641;49.082;8.200;2024-03-22T04:48:45;100868.03;;;9.08;87.71
7200;BME280;3641;49.082;8.200;2024-03-22T04:51:10;100870.41;;;9.11;86.89
7200;BME280;3641;49.082;8.200;2024-03-22T04:53:37;100865.38;;;8.98;90.26
7200;BME280;3641;49.082;8.200;2024-03-22T04:56:03;100870.78;;;8.90;89.21
7200;BME280;3641;49.082;8.200;2024-03-22T04:58:31;100873.16;;;8.41;95.13
7200;BME280;3641;49.082;8.200;2024-03-22T05:00:57;100877.94;;;8.21;97.86
7200;BME280;3641;49.082;8.200;2024-03-22T05:03:24;100865.88;;;8.23;96.58
7200;BME280;3641;49.082;8.200;2024-03-22T05:05:50;100872.69;;;8.01;99.75
7200;BME280;3641;49.082;8.200;2024-03-22T05:08:16;100864.44;;;8.11;98.62
7200;BME280;3641;49.082;8.200;2024-03-22T05:10:42;100867.34;;;8.53;92.57
7200;BME280;3641;49.082;8.200;2024-03-22T05:13:08;100859.03;;;8.81;88.31
7200;BME280;3641;49.082;8.200;2024-03-22T05:15:35;100857.78;;;9.02;87.00
7200;BME280;3641;49.082;8.200;2024-03-22T05:18:02;100862.19;;;9.03;87.30
7200;BME280;3641;49.082;8.200;2024-03-22T05:20:27;100865.75;;;8.95;88.14
7200;BME280;3641;49.082;8.200;2024-03-22T05:22:54;100859.34;;;8.34;95.48
7200;BME280;3641;49.082;8.200;2024-03-22T05:25:20;100865.13;;;8.13;97.70
7200;BME280;3641;49.082;8.200;2024-03-22T05:27:46;100852.94;;;7.99;98.99
7200;BME280;3641;49.082;8.200;2024-03-22T05:30:13;100854.78;;;8.16;98.14
7200;BME280;3641;49.082;8.200;2024-03-22T05:32:41;100860.16;;;8.44;94.16
7200;BME280;3641;49.082;8.200;2024-03-22T05:35:06;100852.94;;;8.61;90.88
7200;BME280;3641;49.082;8.200;2024-03-22T05:37:33;100850.06;;;8.18;96.75
7200;BME280;3641;49.082;8.200;2024-03-22T05:39:59;100851.56;;;8.39;93.14
7200;BME280;3641;49.082;8.200;2024-03-22T05:42:25;100849.38;;;8.43;93.14
7200;BME280;3641;49.082;8.200;2024-03-22T05:44:51;100852.38;;;7.95;98.72
7200;BME280;3641;49.082;8.200;2024-03-22T05:47:19;100858.38;;;8.17;94.98
7200;BME280;3641;49.082;8.200;2024-03-22T05:49:47;100854.50;;;8.02;97.87
7200;BME280;3641;49.082;8.200;2024-03-22T05:52:13;100858.47;;;8.51;91.20
7200;BME280;3641;49.082;8.200;2024-03-22T05:54:39;100851.09;;;8.44;91.91
7200;BME280;3641;49.082;8.200;2024-03-22T05:57:05;100853.88;;;8.52;89.08
7200;BME280;3641;49.082;8.200;2024-03-22T05:59:31;100858.94;;;8.65;87.97
7200;BME280;3641;49.082;8.200;2024-03-22T06:01:57;100862.97;;;8.61;89.20
7200;BME280;3641;49.082;8.200;2024-03-22T06:04:23;100865.81;;;8.51;90.02
7200;BME280;3641;49.082;8.200;2024-03-22T06:06:51;100864.44;;;8.55;89.09
7200;BME280;3641;49.082;8.200;2024-03-22T06:09:16;100856.47;;;8.80;86.99
7200;BME280;3641;49.082;8.200;2024-03-22T06:11:49;100860.34;;;8.51;91.92
7200;BME280;3641;49.082;8.200;2024-03-22T06:14:14;100863.19;;;8.05;97.05
7200;BME280;3641;49.082;8.200;2024-03-22T06:16:41;100849.09;;;8.28;95.12
7200;BME280;3641;49.082;8.200;2024-03-22T06:19:06;100849.09;;;8.28;95.52
7200;BME280;3641;49.082;8.200;2024-03-22T06:21:32;100850.97;;;7.91;97.77
7200;BME280;3641;49.082;8.200;2024-03-22T06:23:59;100839.34;;;8.17;95.82
7200;BME280;3641;49.082;8.200;2024-03-22T06:26:25;100836.94;;;8.40;92.31
7200;BME280;3641;49.082;8.200;2024-03-22T06:28:51;100826.81;;;8.68;87.80
7200;BME280;3641;49.082;8.200;2024-03-22T06:31:17;100826.69;;;8.08;96.56
7200;BME280;3641;49.082;8.200;2024-03-22T06:33:43;100822.44;;;8.49;92.15
7200;BME280;3641;49.082;8.200;2024-03-22T06:36:09;100824.44;;;8.03;99.15
7200;BME280;3641;49.082;8.200;2024-03-22T06:38:35;100824.69;;;7.92;99.59
7200;BME280;3641;49.082;8.200;2024-03-22T06:41:03;100820.94;;;7.93;100.00
7200;BME280;3641;49.082;8.200;2024-03-22T06:43:29;100826.59;;;8.17;98.18
7200;BME280;3641;49.082;8.200;2024-03-22T06:45:55;100824.25;;;8.23;98.94
7200;BME280;3641;49.082;8.200;2024-03-22T06:48:21;100824.84;;;8.34;99.64
7200;BME280;3641;49.082;8.200;2024-03-22T06:50:47;100822.06;;;8.44;99.42
7200;BME280;3641;49.082;8.200;2024-03-22T06:53:13;100814.50;;;8.90;89.93
7200;BME280;3641;49.082;8.200;2024-03-22T06:55:39;100820.97;;;8.98;94.07
7200;BME280;3641;49.082;8.200;2024-03-22T06:58:06;100820.16;;;9.05;91.58
7200;BME280;3641;49.082;8.200;2024-03-22T07:00:32;100819.56;;;9.28;88.29
7200;BME280;3641;49.082;8.200;2024-03-22T07:02:59;100817.75;;;9.37;86.89
7200;BME280;3641;49.082;8.200;2024-03-22T07:05:27;100816.66;;;9.21;94.00
7200;BME280;3641;49.082;8.200;2024-03-22T07:07:53;100815.50;;;9.24;92.82
7200;BME280;3641;49.082;8.200;2024-03-22T07:10:21;100799.03;;;9.50;88.95
7200;BME280;3641;49.082;8.200;2024-03-22T07:12:47;100807.84;;;9.36;95.23
7200;BME280;3641;49.082;8.200;2024-03-22T07:15:15;100798.66;;;9.37;95.26
7200;BME280;3641;49.082;8.200;2024-03-22T07:17:40;100795.31;;;9.59;91.19
7200;BME280;3641;49.082;8.200;2024-03-22T07:20:07;100789.84;;;9.59;94.04
7200;BME280;3641;49.082;8.200;2024-03-22T07:22:33;100792.75;;;9.74;92.70
7200;BME280;3641;49.082;8.200;2024-03-22T07:24:59;100794.31;;;9.77;93.69
7200;BME280;3641;49.082;8.200;2024-03-22T07:27:25;100783.56;;;9.92;93.10
7200;BME280;3641;49.082;8.200;2024-03-22T07:29:54;100784.59;;;9.91;92.47
7200;BME280;3641;49.082;8.200;2024-03-22T07:32:21;100779.97;;;9.99;92.29
7200;BME280;3641;49.082;8.200;2024-03-22T07:34:47;100783.53;;;10.08;91.73
7200;BME280;3641;49.082;8.200;2024-03-22T07:37:13;100788.50;;;10.21;91.21
7200;BME280;3641;49.082;8.200;2024-03-22T07:39:39;100776.53;;;10.39;88.18
7200;BME280;3641;49.082;8.200;2024-03-22T07:42:05;100775.00;;;10.52;86.23
7200;BME280;3641;49.082;8.200;2024-03-22T07:44:32;100775.31;;;10.58;88.55
7200;BME280;3641;49.082;8.200;2024-03-22T07:46:57;100773.91;;;10.70;87.92
7200;BME280;3641;49.082;8.200;2024-03-22T07:49:25;100773.19;;;10.84;87.56
7200;BME280;3641;49.082;8.200;2024-03-22T07:51:50;100767.34;;;10.96;85.59
7200;BME280;3641;49.082;8.200;2024-03-22T07:54:18;100769.22;;;10.95;86.09
7200;BME280;3641;49.082;8.200;2024-03-22T07:56:43;100772.03;;;11.10;84.85
7200;BME280;3641;49.082;8.200;2024-03-22T07:59:10;100760.34;;;11.24;84.69
7200;BME280;3641;49.082;8.200;2024-03-22T08:01:35;100755.34;;;11.36;82.74
7200;BME280;3641;49.082;8.200;2024-03-22T08:04:02;100757.31;;;11.51;83.10
7200;BME280;3641;49.082;8.200;2024-03-22T08:06:28;100753.47;;;11.60;82.54
7200;BME280;3641;49.082;8.200;2024-03-22T08:08:55;100755.28;;;11.68;82.95
7200;BME280;3641;49.082;8.200;2024-03-22T08:11:20;100752.97;;;11.79;81.32
7200;BME280;3641;49.082;8.200;2024-03-22T08:13:47;100751.94;;;12.04;79.22
7200;BME280;3641;49.082;8.200;2024-03-22T08:16:12;100747.06;;;12.14;80.18
7200;BME280;3641;49.082;8.200;2024-03-22T08:18:38;100752.84;;;12.19;80.35
7200;BME280;3641;49.082;8.200;2024-03-22T08:21:04;100745.88;;;12.46;79.64
7200;BME280;3641;49.082;8.200;2024-03-22T08:23:32;100747.38;;;12.49;79.37
7200;BME280;3641;49.082;8.200;2024-03-22T08:25:58;100747.78;;;12.61;77.71
7200;BME280;3641;49.082;8.200;2024-03-22T08:28:24;100749.16;;;12.71;77.17
7200;BME280;3641;49.082;8.200;2024-03-22T08:30:50;100748.22;;;12.79;76.20
7200;BME280;3641;49.082;8.200;2024-03-22T08:33:17;100740.47;;;12.98;76.24
7200;BME280;3641;49.082;8.200;2024-03-22T08:35:43;100741.75;;;13.02;76.46
7200;BME280;3641;49.082;8.200;2024-03-22T08:38:10;100743.28;;;13.04;77.13
7200;BME280;3641;49.082;8.200;2024-03-22T08:40:38;100735.69;;;13.21;75.79
7200;BME280;3641;49.082;8.200;2024-03-22T08:43:06;100734.94;;;13.27;73.46
7200;BME280;3641;49.082;8.200;2024-03-22T08:45:32;100731.41;;;13.34;73.72
7200;BME280;3641;49.082;8.200;2024-03-22T08:47:59;100729.28;;;13.51;72.56
7200;BME280;3641;49.082;8.200;2024-03-22T08:50:24;100727.38;;;13.51;72.11
7200;BME280;3641;49.082;8.200;2024-03-22T08:52:50;100724.72;;;13.36;74.56
7200;BME280;3641;49.082;8.200;2024-03-22T08:55:16;100723.53;;;13.46;72.52
7200;BME280;3641;49.082;8.200;2024-03-22T08:57:44;100726.53;;;13.51;72.37
7200;BME280;3641;49.082;8.200;2024-03-22T09:00:10;100720.41;;;13.49;72.52
7200;BME280;3641;49.082;8.200;2024-03-22T09:02:37;100718.69;;;13.48;75.45
7200;BME280;3641;49.082;8.200;2024-03-22T09:05:03;100719.75;;;13.47;74.52
7200;BME280;3641;49.082;8.200;2024-03-22T09:07:30;100714.59;;;13.58;72.44
7200;BME280;3641;49.082;8.200;2024-03-22T09:09:55;100719.81;;;13.53;73.07
7200;BME280;3641;49.082;8.200;2024-03-22T09:12:22;100711.66;;;13.60;73.19
7200;BME280;3641;49.082;8.200;2024-03-22T09:14:48;100712.03;;;13.57;75.12
7200;BME280;3641;49.082;8.200;2024-03-22T09:17:15;100706.13;;;13.53;74.19
7200;BME280;3641;49.082;8.200;2024-03-22T09:19:41;100703.63;;;13.58;73.65
7200;BME280;3641;49.082;8.200;2024-03-22T09:22:07;100702.66;;;13.66;73.37
7200;BME280;3641;49.082;8.200;2024-03-22T09:24:33;100700.09;;;13.65;75.01
7200;BME280;3641;49.082;8.200;2024-03-22T09:26:59;100692.06;;;13.63;74.52
7200;BME280;3641;49.082;8.200;2024-03-22T09:29:25;100701.00;;;13.72;74.51
7200;BME280;3641;49.082;8.200;2024-03-22T09:31:53;100704.59;;;13.72;75.69
7200;BME280;3641;49.082;8.200;2024-03-22T09:34:18;100693.16;;;13.69;76.45
7200;BME280;3641;49.082;8.200;2024-03-22T09:36:45;100694.88;;;13.70;75.47
7200;BME280;3641;49.082;8.200;2024-03-22T09:39:10;100688.34;;;13.71;75.83
7200;BME280;3641;49.082;8.200;2024-03-22T09:41:41;100680.75;;;13.73;76.11
7200;BME280;3641;49.082;8.200;2024-03-22T09:44:10;100684.13;;;13.75;74.73
7200;BME280;3641;49.082;8.200;2024-03-22T09:46:39;100684.91;;;13.69;74.15
7200;BME280;3641;49.082;8.200;2024-03-22T09:49:08;100680.34;;;13.76;73.97
7200;BME280;3641;49.082;8.200;2024-03-22T09:51:36;100679.09;;;13.78;74.33
7200;BME280;3641;49.082;8.200;2024-03-22T09:54:02;100673.00;;;13.83;73.99
7200;BME280;3641;49.082;8.200;2024-03-22T09:56:30;100673.72;;;13.92;74.41
7200;BME280;3641;49.082;8.200;2024-03-22T09:58:56;100663.16;;;13.89;73.15
7200;BME280;3641;49.082;8.200;2024-03-22T10:01:23;100661.91;;;13.91;75.42
7200;BME280;3641;49.082;8.200;2024-03-22T10:03:50;100670.75;;;13.87;72.59
7200;BME280;3641;49.082;8.200;2024-03-22T10:06:18;100667.59;;;13.90;73.84
7200;BME280;3641;49.082;8.200;2024-03-22T10:08:45;100666.19;;;14.01;73.42
7200;BME280;3641;49.082;8.200;2024-03-22T10:11:10;100660.09;;;14.05;72.25
7200;BME280;3641;49.082;8.200;2024-03-22T10:13:37;100652.72;;;14.06;71.46
7200;BME280;3641;49.082;8.200;2024-03-22T10:16:03;100644.09;;;14.09;71.72
7200;BME280;3641;49.082;8.200;2024-03-22T10:18:32;100638.84;;;14.14;70.61
7200;BME280;3641;49.082;8.200;2024-03-22T10:21:01;100641.63;;;14.21;70.37
7200;BME280;3641;49.082;8.200;2024-03-22T10:23:29;100634.50;;;14.33;70.92
7200;BME280;3641;49.082;8.200;2024-03-22T10:25:56;100633.00;;;14.30;70.87
7200;BME280;3641;49.082;8.200;2024-03-22T10:28:23;100623.72;;;14.31;69.42
7200;BME280;3641;49.082;8.200;2024-03-22T10:30:50;100622.91;;;14.38;70.75
7200;BME280;3641;49.082;8.200;2024-03-22T10:33:18;100618.09;;;14.46;69.44
7200;BME280;3641;49.082;8.200;2024-03-22T10:35:44;100610.06;;;14.45;68.55
7200;BME280;3641;49.082;8.200;2024-03-22T10:38:12;100608.88;;;14.61;67.06
7200;BME280;3641;49.082;8.200;2024-03-22T10:40:40;100593.59;;;14.58;67.46
7200;BME280;3641;49.082;8.200;2024-03-22T10:43:10;100600.63;;;14.61;68.50
7200;BME280;3641;49.082;8.200;2024-03-22T10:45:36;100599.22;;;14.78;66.82
7200;BME280;3641;49.082;8.200;2024-03-22T10:48:09;100587.59;;;14.69;65.62
7200;BME280;3641;49.082;8.200;2024-03-22T10:50:34;100586.50;;;14.64;65.63
7200;BME280;3641;49.082;8.200;2024-03-22T10:53:06;100582.91;;;14.63;64.70
7200;BME280;3641;49.082;8.200;2024-03-22T10:55:34;100577.41;;;14.63;65.64
7200;BME280;3641;49.082;8.200;2024-03-22T10:58:03;100577.22;;;14.65;63.85
7200;BME280;3641;49.082;8.200;2024-03-22T11:00:28;100575.50;;;14.64;64.56
7200;BME280;3641;49.082;8.200;2024-03-22T11:02:55;100567.06;;;14.65;65.06
7200;BME280;3641;49.082;8.200;2024-03-22T11:05:21;100570.88;;;14.71;66.88
7200;BME280;3641;49.082;8.200;2024-03-22T11:07:47;100568.97;;;14.71;66.66
7200;BME280;3641;49.082;8.200;2024-03-22T11:10:13;100565.59;;;14.76;66.77
7200;BME280;3641;49.082;8.200;2024-03-22T11:12:40;100562.19;;;14.74;65.50
7200;BME280;3641;49.082;8.200;2024-03-22T11:15:08;100541.28;;;14.73;63.02
7200;BME280;3641;49.082;8.200;2024-03-22T11:17:35;100546.38;;;14.69;65.86
7200;BME280;3641;49.082;8.200;2024-03-22T11:20:01;100543.16;;;14.73;65.09
7200;BME280;3641;49.082;8.200;2024-03-22T11:22:29;100536.41;;;14.68;62.67
7200;BME280;3641;49.082;8.200;2024-03-22T11:24:55;100536.63;;;14.74;63.45
7200;BME280;3641;49.082;8.200;2024-03-22T11:27:21;100521.44;;;14.84;62.73
7200;BME280;3641;49.082;8.200;2024-03-22T11:29:46;100521.03;;;14.87;61.86
7200;BME280;3641;49.082;8.200;2024-03-22T11:32:17;100514.91;;;14.85;61.36
7200;BME280;3641;49.082;8.200;2024-03-22T11:34:43;100513.41;;;14.76;61.11
7200;BME280;3641;49.082;8.200;2024-03-22T11:37:11;100507.28;;;14.81;61.19
7200;BME280;3641;49.082;8.200;2024-03-22T11:39:37;100499.44;;;14.91;59.38
7200;BME280;3641;49.082;8.200;2024-03-22T11:42:05;100503.25;;;14.90;60.02
7200;BME280;3641;49.082;8.200;2024-03-22T11:44:31;100500.31;;;14.98;59.08
7200;BME280;3641;49.082;8.200;2024-03-22T11:46:58;100496.91;;;14.96;59.53
7200;BME280;3641;49.082;8.200;2024-03-22T11:49:25;100498.19;;;15.00;59.26
7200;BME280;3641;49.082;8.200;2024-03-22T11:51:52;100483.19;;;15.10;59.30
7200;BME280;3641;49.082;8.200;2024-03-22T11:54:19;100485.94;;;15.10;60.21
7200;BME280;3641;49.082;8.200;2024-03-22T11:56:45;100486.53;;;15.25;59.42
7200;BME280;3641;49.082;8.200;2024-03-22T11:59:11;100474.50;;;15.26;62.25
7200;BME280;3641;49.082;8.200;2024-03-22T12:01:37;100470.88;;;15.32;61.22
7200;BME280;3641;49.082;8.200;2024-03-22T12:04:03;100474.88;;;15.50;57.52
7200;BME280;3641;49.082;8.200;2024-03-22T12:06:33;100466.22;;;15.46;57.26
7200;BME280;3641;49.082;8.200;2024-03-22T12:08:59;100470.22;;;15.50;56.44
7200;BME280;3641;49.082;8.200;2024-03-22T12:11:25;100463.00;;;15.62;55.71
7200;BME280;3641;49.082;8.200;2024-03-22T12:13:51;100452.41;;;15.59;56.04
7200;BME280;3641;49.082;8.200;2024-03-22T12:16:17;100443.31;;;15.66;58.35
7200;BME280;3641;49.082;8.200;2024-03-22T12:18:43;100445.84;;;15.67;56.09
7200;BME280;3641;49.082;8.200;2024-03-22T12:21:09;100434.41;;;15.70;60.34
7200;BME280;3641;49.082;8.200;2024-03-22T12:23:36;100429.31;;;15.74;55.48
7200;BME280;3641;49.082;8.200;2024-03-22T12:26:03;100435.25;;;15.77;58.44
7200;BME280;3641;49.082;8.200;2024-03-22T12:28:28;100433.34;;;15.78;56.30
7200;BME280;3641;49.082;8.200;2024-03-22T12:30:55;100422.72;;;15.88;57.64
7200;BME280;3641;49.082;8.200;2024-03-22T12:33:20;100421.66;;;15.89;54.58
7200;BME280;3641;49.082;8.200;2024-03-22T12:35:47;100421.44;;;15.91;54.71
7200;BME280;3641;49.082;8.200;2024-03-22T12:38:13;100416.16;;;15.83;55.88
7200;BME280;3641;49.082;8.200;2024-03-22T12:40:41;100417.59;;;15.92;56.05
7200;BME280;3641;49.082;8.200;2024-03-22T12:43:09;100404.00;;;15.97;57.70
7200;BME280;3641;49.082;8.200;2024-03-22T12:45:35;100397.19;;;16.06;56.40
7200;BME280;3641;49.082;8.200;2024-03-22T12:48:01;100401.34;;;16.22;54.01
7200;BME280;3641;49.082;8.200;2024-03-22T12:50:27;100395.78;;;16.29;54.91
7200;BME280;3641;49.082;8.200;2024-03-22T12:52:53;100397.38;;;16.43;53.59
7200;BME280;3641;49.082;8.200;2024-03-22T12:55:19;100401.06;;;16.37;55.06
7200;BME280;3641;49.082;8.200;2024-03-22T12:57:46;100394.34;;;16.26;56.26
7200;BME280;3641;49.082;8.200;2024-03-22T13:00:14;100390.28;;;16.29;55.62
7200;BME280;3641;49.082;8.200;2024-03-22T13:02:43;100384.31;;;16.39;54.82
7200;BME280;3641;49.082;8.200;2024-03-22T13:05:10;100386.13;;;16.51;52.64
7200;BME280;3641;49.082;8.200;2024-03-22T13:07:35;100369.59;;;16.45;54.39
7200;BME280;3641;49.082;8.200;2024-03-22T13:10:02;100368.09;;;16.49;52.66
7200;BME280;3641;49.082;8.200;2024-03-22T13:12:28;100365.41;;;16.42;55.59